createdAt,value
2017-10-21T00:04:07.132Z,36.83
2017-10-21T00:09:11.017Z,43.83
2017-10-21T00:14:14.611Z,37.10
2017-10-21T00:24:26.155Z,36.33
2017-10-21T00:29:29.786Z,35.37
2017-10-21T00:34:35.190Z,39.53
2017-10-21T00:39:38.312Z,35.97
2017-10-21T00:44:42.066Z,39.07
2017-10-21T00:54:53.328Z,41.40
2017-10-21T00:59:56.290Z,38.03
2017-10-21T01:05:02.825Z,41.70
2017-10-21T01:10:06.301Z,37.20
2017-10-21T01:15:09.157Z,39.83
2017-10-21T01:20:13.521Z,40.73
2017-10-21T01:25:19.961Z,45.67
2017-10-21T01:30:23.079Z,43.80
2017-10-21T01:35:27.682Z,41.00
2017-10-21T01:45:38.556Z,37.67
2017-10-21T01:50:43.011Z,44.63
2017-10-21T02:05:59.926Z,37.63
2017-10-21T02:11:04.360Z,43.00
2017-10-21T02:16:10.916Z,41.77
2017-10-21T02:21:14.474Z,45.77
2017-10-21T02:26:17.948Z,51.63
2017-10-21T02:31:21.543Z,39.47
2017-10-21T02:36:24.914Z,37.93
2017-10-21T02:41:29.508Z,41.43
2017-10-21T02:46:34.549Z,37.03
2017-10-21T02:51:38.856Z,40.97
2017-10-21T02:56:42.572Z,46.73
2017-10-21T03:01:47.326Z,33.30
2017-10-21T03:06:50.244Z,50.10
2017-10-21T03:11:54.036Z,39.77
2017-10-21T03:22:05.458Z,50.53
2017-10-21T03:27:09.903Z,54.53
2017-10-21T03:37:23.047Z,49.77
2017-10-21T03:42:27.559Z,47.13
2017-10-21T03:47:31.213Z,42.80
2017-10-21T03:52:34.291Z,52.70
2017-10-21T03:57:37.330Z,53.07
2017-10-21T04:07:49.919Z,56.43
2017-10-21T04:12:54.476Z,42.63
2017-10-21T04:17:58.208Z,47.83
2017-10-21T04:23:01.120Z,48.13
2017-10-21T04:28:05.670Z,52.53
2017-10-21T04:33:09.274Z,43.43
2017-10-21T04:43:22.819Z,48.60
2017-10-21T04:48:26.136Z,51.23
2017-10-21T04:53:29.179Z,45.13
2017-10-21T04:58:32.532Z,42.93
2017-10-21T05:03:37.192Z,42.43
2017-10-21T05:13:48.711Z,50.53
2017-10-21T05:24:02.983Z,45.20
2017-10-21T05:29:06.407Z,47.13
2017-10-21T05:34:09.553Z,39.60
2017-10-21T05:39:12.518Z,48.70
2017-10-21T05:44:15.368Z,43.47
2017-10-21T05:49:21.066Z,48.87
2017-10-21T05:54:24.669Z,42.60
2017-10-21T05:59:27.715Z,43.67
2017-10-21T06:04:30.748Z,43.00
2017-10-21T06:09:35.188Z,40.40
2017-10-21T06:14:39.249Z,46.67
2017-10-21T06:19:42.382Z,36.83
2017-10-21T06:24:45.604Z,48.70
2017-10-21T06:34:57.379Z,45.87
2017-10-21T06:40:03.882Z,48.60
2017-10-21T06:50:18.116Z,51.90
2017-10-21T06:55:21.761Z,51.13
2017-10-21T07:00:25.692Z,47.37
2017-10-21T07:10:35.564Z,53.63
2017-10-21T07:15:41.773Z,62.37
2017-10-21T07:20:45.381Z,50.23
2017-10-21T07:25:49.933Z,48.70
2017-10-21T07:30:53.450Z,45.40
2017-10-21T07:36:00.966Z,50.57
2017-10-21T07:41:03.864Z,67.40
2017-10-21T07:46:08.266Z,49.23
2017-10-21T07:51:12.715Z,50.50
2017-10-21T07:56:17.791Z,45.50
2017-10-21T08:01:24.354Z,56.87
2017-10-21T08:06:30.528Z,50.40
2017-10-21T08:16:40.933Z,45.33
2017-10-21T08:21:45.357Z,42.93
2017-10-21T08:26:51.970Z,53.33
2017-10-21T08:31:56.367Z,53.17
2017-10-21T08:37:00.971Z,46.77
2017-10-21T08:42:05.276Z,51.17
2017-10-21T08:47:08.446Z,42.50
2017-10-21T08:52:11.476Z,45.97
2017-10-21T08:57:14.423Z,42.57
2017-10-21T09:02:18.657Z,38.00
2017-10-21T09:07:22.045Z,41.83
2017-10-21T09:12:25.827Z,41.57
2017-10-21T09:17:29.369Z,41.73
2017-10-21T09:22:32.558Z,32.90
2017-10-21T09:27:35.541Z,39.77
2017-10-21T09:32:38.285Z,40.47
2017-10-21T09:37:44.844Z,42.10
2017-10-21T09:42:49.713Z,35.73
2017-10-21T09:47:52.683Z,38.43
2017-10-21T09:52:55.860Z,33.20
2017-10-21T09:57:59.532Z,31.20
2017-10-21T10:03:02.857Z,36.73
2017-10-21T10:08:06.019Z,27.67
2017-10-21T10:13:09.060Z,31.33
2017-10-21T10:18:15.952Z,27.03
2017-10-21T10:23:20.246Z,32.83
2017-10-21T10:28:24.867Z,28.70
2017-10-21T10:33:27.956Z,26.53
2017-10-21T10:38:34.222Z,28.20
2017-10-21T10:43:38.611Z,24.93
2017-10-21T10:48:41.589Z,27.50
2017-10-21T10:53:44.427Z,23.83
2017-10-21T10:58:48.789Z,29.53
2017-10-21T11:03:51.791Z,27.10
2017-10-21T11:08:55.666Z,27.77
2017-10-21T11:13:58.966Z,22.83
2017-10-21T11:19:02.516Z,24.73
2017-10-21T11:24:05.462Z,24.00
2017-10-21T11:29:10.626Z,22.07
2017-10-21T11:34:14.880Z,15.73
2017-10-21T11:39:18.669Z,19.17
2017-10-21T11:44:27.012Z,18.17
2017-10-21T11:49:33.486Z,17.23
2017-10-21T11:54:40.007Z,13.20
2017-10-21T11:59:46.178Z,11.87
2017-10-21T12:04:49.107Z,17.03
2017-10-21T12:09:54.322Z,14.60
2017-10-21T12:14:57.733Z,14.60
2017-10-21T12:20:04.005Z,11.80
2017-10-21T12:25:08.676Z,11.77
2017-10-21T12:30:11.966Z,11.10
2017-10-21T12:35:15.511Z,13.10
2017-10-21T12:40:19.296Z,13.20
2017-10-21T12:45:24.007Z,14.47
2017-10-21T12:50:26.978Z,13.80
2017-10-21T13:16:09.562Z,12.60
2017-10-21T13:21:14.850Z,12.50
2017-10-21T13:26:17.443Z,10.93
2017-10-21T13:31:21.672Z,12.73
2017-10-21T14:03:33.644Z,12.87
2017-10-21T14:13:44.375Z,21.07
2017-10-21T14:18:48.239Z,27.03
2017-10-21T14:23:55.279Z,24.50
2017-10-21T14:34:05.725Z,25.13
2017-10-21T14:39:10.197Z,22.40
2017-10-21T14:44:13.662Z,22.77
2017-10-21T14:49:17.164Z,20.30
2017-10-21T14:54:21.340Z,24.43
2017-10-21T14:59:24.179Z,29.47
2017-10-21T15:04:28.603Z,25.87
2017-10-21T15:09:32.057Z,28.20
2017-10-21T15:14:38.437Z,23.57
2017-10-21T15:19:41.934Z,25.47
2017-10-21T15:24:44.953Z,22.97
2017-10-21T15:29:48.456Z,21.90
2017-10-21T15:34:55.445Z,26.40
2017-10-21T15:39:59.143Z,25.23
2017-10-21T15:45:03.603Z,31.50
2017-10-21T15:50:09.977Z,33.90
2017-10-21T15:55:12.946Z,31.17
2017-10-21T16:00:15.830Z,28.73
2017-10-21T16:20:53.384Z,33.23
2017-10-21T16:25:59.590Z,27.10
2017-10-21T16:31:02.168Z,32.20
2017-10-21T16:36:06.642Z,28.57
2017-10-21T16:41:12.940Z,27.47
2017-10-21T16:46:19.093Z,34.20
2017-10-21T16:51:22.888Z,29.90
2017-10-21T16:56:25.958Z,30.10
2017-10-21T17:01:29.127Z,30.40
2017-10-21T17:06:32.771Z,29.10
2017-10-21T17:11:37.800Z,33.80
2017-10-21T17:16:40.477Z,34.57
2017-10-21T17:21:43.914Z,30.63
2017-10-21T17:26:47.643Z,34.53
2017-10-21T17:31:51.880Z,32.30
2017-10-21T17:36:57.342Z,32.37
2017-10-21T17:42:04.153Z,31.30
2017-10-21T17:57:20.996Z,38.43
2017-10-21T18:07:32.093Z,37.87
2017-10-21T18:12:36.450Z,37.83
2017-10-21T18:17:40.098Z,37.37
2017-10-21T18:22:43.705Z,36.27
2017-10-21T18:27:47.752Z,36.27
2017-10-21T18:32:52.009Z,35.00
2017-10-21T18:37:56.534Z,35.73
2017-10-21T18:43:00.064Z,33.30
2017-10-21T18:48:04.496Z,40.23
2017-10-21T18:53:08.999Z,44.13
2017-10-21T18:58:15.464Z,40.40
2017-10-21T19:03:18.965Z,37.30
2017-10-21T19:08:22.490Z,43.57
2017-10-21T19:13:25.878Z,32.13
2017-10-21T19:18:29.324Z,37.67
2017-10-21T19:28:38.965Z,48.20
2017-10-21T19:38:48.984Z,36.43
2017-10-21T19:43:52.764Z,38.27
2017-10-21T19:48:57.110Z,38.60
2017-10-21T19:54:03.221Z,44.70
2017-10-21T20:09:23.121Z,39.53
2017-10-21T20:14:26.784Z,43.93
2017-10-21T20:19:31.703Z,41.20
2017-10-21T20:24:34.590Z,44.47
2017-10-21T20:29:40.963Z,49.23
2017-10-21T20:34:44.295Z,37.37
2017-10-21T20:39:51.111Z,42.57
2017-10-21T20:44:57.902Z,45.00
2017-10-21T20:50:05.708Z,43.30
2017-10-21T21:05:25.574Z,39.33
2017-10-21T21:15:39.962Z,48.73
2017-10-21T21:31:00.770Z,47.10
2017-10-21T21:36:03.965Z,45.33
2017-10-21T21:41:07.787Z,36.53
2017-10-21T21:46:14.617Z,20.63
2017-10-21T21:56:26.450Z,5.03
2017-10-21T22:01:31.590Z,3.80
2017-10-21T22:06:36.322Z,1.90
2017-10-21T22:11:39.616Z,2.87
2017-10-21T22:16:44.608Z,2.43
2017-10-21T22:21:51.958Z,0.90
2017-10-21T22:26:58.625Z,3.33
2017-10-21T22:43:23.887Z,1.00
2017-10-21T22:48:39.099Z,0.90
2017-10-21T22:59:24.610Z,0.90
2017-10-21T23:16:19.071Z,1.77
2017-10-21T23:44:29.139Z,1.73
